Time;durP1;ratioP1;P1;durP2;ratioP2;P2;SDS_P1;SDS_P2;PMS_P1;PMS_P2;Temp;Humidity;BMP_temperature;BMP_pressure;BME280_temperature;BME280_humidity;BME280_pressure;Samples;Min_cycle;Max_cycle;Signal;HPM_P1;HPM_P2
2023/06/23 00:01:20;;;;;;;9.10;8.00;;;;;;;22.69;59.37;100501.65;107790;1259;60248;-82
2023/06/23 00:04:06;;;;;;;10.30;7.80;;;;;;;22.65;59.77;100500.59;107788;1259;73105;-83
2023/06/23 00:06:41;;;;;;;9.10;8.20;;;;;;;22.61;60.10;100495.10;107740;1260;73704;-81
2023/06/23 00:09:13;;;;;;;10.20;8.10;;;;;;;22.57;60.44;100490.76;107773;1259;72672;-81
2023/06/23 00:11:41;;;;;;;10.80;8.10;;;;;;;22.67;60.29;100489.00;107724;1259;61315;-81
2023/06/23 00:14:09;;;;;;;10.80;7.90;;;;;;;22.60;60.37;100489.38;107627;1259;59592;-81
2023/06/23 00:16:37;;;;;;;9.00;7.90;;;;;;;22.52;60.72;100490.21;107620;1258;73193;-81
2023/06/23 00:19:06;;;;;;;9.40;7.80;;;;;;;22.82;59.84;100487.39;107669;1259;72902;-81
2023/06/23 00:21:34;;;;;;;9.20;7.80;;;;;;;22.44;60.80;100484.90;107842;1259;71490;-82
2023/06/23 00:24:01;;;;;;;12.30;7.80;;;;;;;22.35;61.21;100485.67;107701;1259;61737;-81
2023/06/23 00:26:29;;;;;;;9.90;7.90;;;;;;;22.29;61.36;100484.56;107573;1259;59554;-81
2023/06/23 00:28:58;;;;;;;9.30;8.30;;;;;;;22.24;61.46;100481.60;107576;1259;71833;-81
2023/06/23 00:31:25;;;;;;;10.90;8.20;;;;;;;22.18;61.84;100479.95;107683;1259;71164;-81
2023/06/23 00:33:53;;;;;;;9.50;7.70;;;;;;;22.13;61.73;100481.13;107652;1263;71848;-80
2023/06/23 00:36:21;;;;;;;9.50;8.40;;;;;;;22.09;61.93;100476.71;107573;1259;60432;-82
2023/06/23 00:38:48;;;;;;;10.60;8.10;;;;;;;22.06;62.06;100477.00;107583;1259;60024;-82
2023/06/23 00:41:17;;;;;;;9.70;8.70;;;;;;;22.04;62.29;100475.43;107711;1259;73102;-80
2023/06/23 00:43:49;;;;;;;10.20;7.70;;;;;;;22.01;62.23;100472.94;107523;1266;71761;-80
2023/06/23 00:46:19;;;;;;;9.80;7.80;;;;;;;21.94;62.54;100474.18;107714;1259;73865;-84
2023/06/23 00:48:48;;;;;;;11.00;8.00;;;;;;;21.89;62.66;100473.05;107582;1262;61947;-81
2023/06/23 00:51:16;;;;;;;10.00;8.30;;;;;;;21.84;62.91;100469.62;107585;1259;59644;-83
2023/06/23 00:53:47;;;;;;;9.50;8.50;;;;;;;21.78;63.03;100470.75;107556;1264;73045;-83
2023/06/23 00:56:15;;;;;;;11.70;8.10;;;;;;;21.73;63.37;100474.70;107725;1259;72812;-81
2023/06/23 00:58:42;;;;;;;9.80;8.50;;;;;;;21.70;63.63;100474.98;107691;1259;72742;-80
2023/06/23 01:01:10;;;;;;;9.40;8.00;;;;;;;21.66;63.98;100471.00;107500;1259;60479;-82
2023/06/23 01:03:40;;;;;;;10.70;7.80;;;;;;;21.60;64.11;100471.66;107670;1259;60142;-81
2023/06/23 01:06:24;;;;;;;8.90;8.00;;;;;;;21.51;64.42;100476.05;107748;1259;72236;-82
2023/06/23 01:08:56;;;;;;;10.20;8.70;;;;;;;21.42;64.79;100474.71;107700;1263;71626;-80
2023/06/23 01:11:30;;;;;;;9.20;8.20;;;;;;;21.35;65.33;100475.67;107672;1260;72538;-80
2023/06/23 01:14:11;;;;;;;9.30;8.40;;;;;;;21.33;65.63;100475.21;107654;1259;61763;-81
2023/06/23 01:16:49;;;;;;;9.70;7.90;;;;;;;21.31;65.80;100477.70;107732;1259;59494;-81
2023/06/23 01:19:38;;;;;;;9.70;8.20;;;;;;;21.31;66.03;100472.81;107677;1263;71797;-81
2023/06/23 01:22:15;;;;;;;11.10;8.10;;;;;;;21.30;66.05;100472.46;107559;1259;71669;-80
2023/06/23 01:24:49;;;;;;;11.60;8.20;;;;;;;21.28;66.09;100471.69;107726;1259;71608;-82
2023/06/23 01:27:49;;;;;;;10.00;8.30;;;;;;;21.26;66.29;100470.23;107658;1259;61737;-81
2023/06/23 01:30:17;;;;;;;9.10;8.10;;;;;;;21.19;66.50;100473.45;107720;1260;60038;-81
2023/06/23 01:32:49;;;;;;;10.60;8.50;;;;;;;21.16;66.48;100472.80;107569;1264;73107;-82
2023/06/23 01:35:21;;;;;;;9.60;8.30;;;;;;;21.13;66.46;100470.87;107671;1259;70833;-81
2023/06/23 01:37:51;;;;;;;9.30;8.30;;;;;;;21.11;66.63;100472.73;107725;1264;72665;-81
2023/06/23 01:40:21;;;;;;;11.10;8.50;;;;;;;21.10;66.75;100471.79;107610;1259;61697;-79
2023/06/23 01:42:53;;;;;;;9.20;8.10;;;;;;;21.08;66.97;100476.45;107723;1260;60290;-80
2023/06/23 01:45:21;;;;;;;10.40;8.70;;;;;;;21.06;66.98;100482.04;107705;1259;72219;-81
2023/06/23 01:47:49;;;;;;;10.20;8.40;;;;;;;21.02;67.16;100480.86;107670;1263;72901;-80
2023/06/23 01:50:18;;;;;;;9.00;7.90;;;;;;;21.00;67.21;100488.23;107714;1261;72755;-81
2023/06/23 01:52:46;;;;;;;9.30;8.20;;;;;;;20.97;67.58;100492.05;107737;1261;61826;-80
2023/06/23 01:55:14;;;;;;;9.30;8.30;;;;;;;20.97;67.61;100489.75;107590;1260;60029;-80
2023/06/23 01:57:41;;;;;;;9.60;8.20;;;;;;;20.98;67.84;100486.52;107644;1263;71746;-79
2023/06/23 02:00:16;;;;;;;10.50;8.50;;;;;;;20.98;67.79;100487.54;107664;1259;71454;-81
2023/06/23 02:02:47;;;;;;;9.50;8.50;;;;;;;20.98;67.89;100486.36;107694;1263;72236;-80
2023/06/23 02:05:17;;;;;;;9.20;8.20;;;;;;;20.98;68.01;100492.56;107729;1259;60387;-80
2023/06/23 02:07:57;;;;;;;10.50;8.50;;;;;;;20.94;68.06;100493.41;107667;1259;59516;-81
2023/06/23 02:10:48;;;;;;;10.00;8.70;;;;;;;20.90;68.27;100494.98;107575;1261;73111;-81
2023/06/23 02:13:35;;;;;;;12.90;8.70;;;;;;;20.90;68.52;100498.93;107642;1260;71576;-80
2023/06/23 02:16:06;;;;;;;9.90;8.20;;;;;;;20.92;68.61;100499.23;107705;1259;72691;-81
2023/06/23 02:18:54;;;;;;;10.40;8.50;;;;;;;20.93;68.79;100502.17;107582;1265;59834;-81
2023/06/23 02:21:36;;;;;;;10.60;8.30;;;;;;;20.97;68.68;100498.22;107676;1259;59731;-81
2023/06/23 02:24:26;;;;;;;9.00;8.10;;;;;;;21.00;68.80;100493.52;107643;1261;73258;-81
2023/06/23 02:26:59;;;;;;;9.70;8.30;;;;;;;21.00;68.86;100490.66;107686;1259;72458;-80
2023/06/23 02:29:29;;;;;;;11.80;8.20;;;;;;;21.03;68.91;100495.23;107643;1259;72724;-80
2023/06/23 02:32:03;;;;;;;9.40;8.40;;;;;;;21.05;68.91;100497.27;107656;1260;62146;-80
2023/06/23 02:34:37;;;;;;;12.00;8.50;;;;;;;21.07;68.87;100497.20;107774;1264;59976;-80
2023/06/23 02:37:18;;;;;;;10.70;8.60;;;;;;;21.09;68.74;100497.73;107638;1261;73103;-81
2023/06/23 02:39:58;;;;;;;10.00;9.00;;;;;;;21.09;68.82;100495.42;107619;1259;72764;-82
2023/06/23 02:42:36;;;;;;;9.90;8.40;;;;;;;21.12;68.70;100496.98;107680;1261;74782;-81
2023/06/23 02:45:22;;;;;;;9.20;8.30;;;;;;;21.10;68.78;100494.82;107793;1261;60420;-80
2023/06/23 02:48:06;;;;;;;10.80;8.80;;;;;;;21.12;68.87;100496.05;107613;1260;59405;-81
2023/06/23 02:51:00;;;;;;;10.50;9.00;;;;;;;21.14;68.69;100497.79;107671;1260;73886;-81
2023/06/23 02:54:05;;;;;;;10.70;8.50;;;;;;;21.19;68.76;100498.05;107689;1259;71786;-79
2023/06/23 02:56:51;;;;;;;11.40;8.70;;;;;;;21.27;68.78;100496.95;107705;1261;72931;-80
2023/06/23 02:59:20;;;;;;;10.40;9.30;;;;;;;21.44;68.38;100496.91;107631;1261;60460;-80
2023/06/23 03:01:54;;;;;;;11.40;8.50;;;;;;;21.52;68.32;100496.59;107719;1260;62241;-80
2023/06/23 03:04:38;;;;;;;9.30;8.30;;;;;;;21.61;68.02;100487.70;107776;1260;72018;-80
2023/06/23 03:07:39;;;;;;;12.50;9.40;;;;;;;21.73;67.89;100485.55;107597;1259;71188;-81
2023/06/23 03:10:28;;;;;;;9.50;8.50;;;;;;;21.84;67.81;100477.71;107771;1260;71166;-81
2023/06/23 03:13:11;;;;;;;12.30;8.90;;;;;;;21.98;67.60;100482.01;107691;1260;61905;-81
2023/06/23 03:15:48;;;;;;;10.40;9.40;;;;;;;22.10;67.30;100481.25;107749;1260;59650;-81
2023/06/23 03:18:36;;;;;;;10.00;9.00;;;;;;;22.21;67.00;100482.06;107604;1259;71470;-81
2023/06/23 03:21:30;;;;;;;;;;;;;;;22.31;66.76;100472.50;107760;1263;71457;-81
2023/06/23 03:24:25;;;;;;;10.70;9.30;;;;;;;22.41;66.52;100475.02;107738;1260;74051;-81
2023/06/23 03:27:16;;;;;;;12.00;8.30;;;;;;;22.46;66.58;100474.40;107625;1260;60417;-81
2023/06/23 03:30:17;;;;;;;9.80;8.80;;;;;;;22.62;66.37;100473.11;107605;1266;60200;-81
2023/06/23 03:33:25;;;;;;;11.20;8.70;;;;;;;22.80;66.03;100474.99;107605;1260;72737;-81
2023/06/23 03:36:20;;;;;;;13.90;9.40;;;;;;;22.85;65.41;100476.26;107608;1260;72758;-81
2023/06/23 03:39:09;;;;;;;9.80;8.80;;;;;;;22.90;64.85;100470.20;107638;1260;71294;-80
2023/06/23 03:42:02;;;;;;;11.40;9.60;;;;;;;23.10;64.15;100462.41;107660;1261;61757;-81
2023/06/23 03:44:50;;;;;;;10.80;9.70;;;;;;;23.23;63.26;100461.55;107612;1259;61339;-80
2023/06/23 03:47:41;;;;;;;12.30;10.10;;;;;;;23.33;62.32;100458.59;107695;1259;72569;-81
2023/06/23 03:50:32;;;;;;;11.60;9.70;;;;;;;23.47;61.57;100457.56;107791;1257;72770;-81
2023/06/23 03:53:01;;;;;;;12.60;9.80;;;;;;;23.58;61.11;100454.40;107719;1257;72644;-81
2023/06/23 03:55:29;;;;;;;12.10;10.20;;;;;;;23.69;60.48;100452.82;107834;1257;61676;-80
2023/06/23 03:58:00;;;;;;;11.40;9.40;;;;;;;23.69;60.24;100451.20;107878;1255;60420;-80
2023/06/23 04:00:30;;;;;;;11.00;9.10;;;;;;;23.75;59.98;100449.48;107967;1257;73947;-80
2023/06/23 04:02:57;;;;;;;10.70;9.50;;;;;;;23.83;59.51;100449.41;107798;1257;73010;-80
2023/06/23 04:05:26;;;;;;;10.20;9.20;;;;;;;23.92;59.21;100449.16;107770;1257;71419;-80
2023/06/23 04:07:54;;;;;;;11.50;10.20;;;;;;;24.01;59.08;100448.32;107773;1257;60537;-80
2023/06/23 04:10:22;;;;;;;12.00;9.80;;;;;;;24.12;58.51;100449.20;107961;1257;60340;-80
2023/06/23 04:12:49;;;;;;;10.90;9.80;;;;;;;24.20;58.06;100449.02;107856;1258;73964;-80
2023/06/23 04:15:18;;;;;;;11.00;9.90;;;;;;;24.26;57.67;100445.98;107915;1257;72529;-80
2023/06/23 04:17:45;;;;;;;12.80;10.20;;;;;;;24.30;57.28;100443.92;107932;1257;72668;-80
2023/06/23 04:20:13;;;;;;;11.20;9.80;;;;;;;24.39;57.21;100437.04;107981;1257;61797;-79
2023/06/23 04:22:42;;;;;;;12.70;10.40;;;;;;;24.50;57.15;100438.17;107966;1257;60630;-81
2023/06/23 04:25:10;;;;;;;10.40;9.40;;;;;;;24.62;57.22;100436.98;107997;1256;73777;-81
2023/06/23 04:27:37;;;;;;;11.50;10.30;;;;;;;24.81;56.65;100440.74;107835;1256;72695;-80
2023/06/23 04:30:06;;;;;;;10.70;9.60;;;;;;;24.96;55.88;100438.74;107907;1260;72767;-80
2023/06/23 04:32:34;;;;;;;11.10;10.00;;;;;;;25.01;55.51;100442.77;107675;1258;60526;-80
2023/06/23 04:35:02;;;;;;;11.60;10.20;;;;;;;25.09;55.35;100452.30;108023;1258;60356;-80
2023/06/23 04:37:36;;;;;;;12.20;10.40;;;;;;;25.20;55.17;100460.77;107805;1257;73917;-80
2023/06/23 04:40:13;;;;;;;11.60;10.40;;;;;;;25.32;54.77;100459.52;107829;1256;71911;-80
2023/06/23 04:43:14;;;;;;;11.00;9.80;;;;;;;25.43;54.75;100458.98;107980;1257;72742;-80
2023/06/23 04:45:45;;;;;;;11.70;9.70;;;;;;;25.58;54.26;100458.80;108007;1257;61557;-80
2023/06/23 04:48:13;;;;;;;;;;;;;;;25.68;53.80;100457.81;107837;1256;60468;-80
2023/06/23 04:50:42;;;;;;;11.00;9.80;;;;;;;25.75;53.41;100461.55;107975;1257;72548;-80
2023/06/23 04:53:16;;;;;;;11.60;9.80;;;;;;;25.76;52.83;100461.40;107914;1257;74653;-81
2023/06/23 04:56:02;;;;;;;10.50;9.50;;;;;;;25.78;53.01;100457.55;107868;1257;74859;-79
2023/06/23 04:58:53;;;;;;;13.40;10.40;;;;;;;25.89;52.80;100455.42;107987;1258;60071;-81
2023/06/23 05:01:47;;;;;;;10.90;9.80;;;;;;;26.00;52.28;100453.42;107927;1257;60140;-81
2023/06/23 05:04:37;;;;;;;12.60;10.20;;;;;;;25.96;52.08;100453.84;107889;1256;73846;-80
2023/06/23 05:32:05;;;;;;;11.30;10.20;;;;;;;26.92;50.24;100448.65;107561;1260;71279;-80
2023/06/23 05:34:33;;;;;;;11.50;10.30;;;;;;;27.04;50.19;100448.35;107606;1257;62234;-80
2023/06/23 05:37:01;;;;;;;11.60;10.40;;;;;;;27.14;50.04;100448.27;107729;1257;60518;-79
2023/06/23 05:39:29;;;;;;;11.20;10.00;;;;;;;27.21;49.84;100447.41;107698;1257;72565;-80
2023/06/23 05:41:57;;;;;;;12.00;10.50;;;;;;;27.29;49.80;100447.59;107701;1257;73803;-80
2023/06/23 05:44:25;;;;;;;12.10;10.50;;;;;;;27.36;49.49;100445.96;107674;1257;72812;-80
2023/06/23 05:46:53;;;;;;;11.30;10.20;;;;;;;27.47;49.33;100440.21;107598;1257;60470;-80
2023/06/23 05:49:21;;;;;;;11.30;10.30;;;;;;;27.61;49.32;100443.52;107807;1257;60316;-79
2023/06/23 05:51:53;;;;;;;11.80;10.50;;;;;;;27.75;49.16;100441.86;107714;1263;72654;-80
2023/06/23 05:54:21;;;;;;;11.60;10.40;;;;;;;27.87;48.97;100441.68;107739;1257;73197;-80
2023/06/23 05:56:51;;;;;;;11.70;10.60;;;;;;;27.96;48.58;100439.64;107611;1260;71448;-80
2023/06/23 05:59:42;;;;;;;11.40;10.30;;;;;;;28.07;48.25;100438.80;107743;1261;60331;-80
2023/06/23 06:02:18;;;;;;;11.10;10.00;;;;;;;28.17;48.11;100436.70;107781;1257;60454;-81
2023/06/23 06:04:54;;;;;;;11.30;10.20;;;;;;;28.26;47.27;100435.76;107668;1257;72622;-83
2023/06/23 06:07:24;;;;;;;11.40;10.40;;;;;;;28.32;47.20;100431.55;107777;1257;72854;-82
2023/06/23 06:09:52;;;;;;;11.80;10.70;;;;;;;28.40;46.89;100431.09;107649;1257;71057;-80
2023/06/23 06:12:20;;;;;;;12.10;10.90;;;;;;;28.45;46.80;100431.08;107676;1259;60443;-79
2023/06/23 06:14:48;;;;;;;11.30;10.10;;;;;;;28.55;46.79;100431.77;107749;1258;60386;-80
2023/06/23 06:17:15;;;;;;;11.40;10.40;;;;;;;28.67;46.79;100432.70;107693;1257;73882;-80
2023/06/23 06:19:43;;;;;;;11.70;10.50;;;;;;;28.78;46.72;100429.23;107569;1257;62705;-80
2023/06/23 06:22:11;;;;;;;11.60;10.50;;;;;;;28.93;46.84;100426.33;107695;1257;73157;-80
2023/06/23 06:24:38;;;;;;;12.70;11.50;;;;;;;29.08;46.28;100420.85;107661;1256;60371;-80
2023/06/23 06:27:07;;;;;;;11.60;10.50;;;;;;;29.14;45.86;100423.16;107677;1256;60243;-80
2023/06/23 06:29:35;;;;;;;11.90;10.70;;;;;;;29.18;45.30;100419.25;107739;1257;63911;-80
2023/06/23 06:32:03;;;;;;;12.30;11.00;;;;;;;29.24;45.49;100420.84;107597;1263;62579;-79
2023/06/23 06:34:31;;;;;;;12.20;11.10;;;;;;;29.36;45.58;100417.73;107789;1263;63875;-81
2023/06/23 06:37:00;;;;;;;12.20;11.00;;;;;;;29.48;44.68;100412.35;107725;1263;58859;-81
2023/06/23 06:39:31;;;;;;;11.50;10.40;;;;;;;29.52;43.74;100411.25;107663;1257;60486;-81
2023/06/23 06:41:58;;;;;;;12.40;11.30;;;;;;;29.55;43.45;100411.81;107730;1256;67001;-80
2023/06/23 06:44:26;;;;;;;11.40;10.30;;;;;;;29.52;43.50;100406.85;107797;1263;62742;-81
2023/06/23 06:46:54;;;;;;;11.90;10.90;;;;;;;29.48;43.44;100402.12;107771;1256;63819;-80
2023/06/23 06:49:23;;;;;;;12.20;11.20;;;;;;;29.52;43.59;100401.11;108059;1257;60444;-80
2023/06/23 06:51:50;;;;;;;11.70;10.60;;;;;;;29.60;43.41;100397.36;108182;1257;60366;-79
2023/06/23 06:54:18;;;;;;;12.00;10.90;;;;;;;29.64;43.19;100397.70;107939;1256;63647;-80
2023/06/23 06:56:46;;;;;;;13.50;11.40;;;;;;;29.67;43.04;100400.55;107920;1256;62702;-80
2023/06/23 06:59:14;;;;;;;12.30;11.10;;;;;;;29.70;42.74;100398.82;107908;1256;62552;-79
2023/06/23 07:01:41;;;;;;;11.80;10.80;;;;;;;29.72;42.32;100404.33;107895;1257;60307;-81
2023/06/23 07:04:23;;;;;;;12.20;11.10;;;;;;;29.73;42.37;100399.14;108451;1256;58287;-80
2023/06/23 07:07:08;;;;;;;12.40;11.20;;;;;;;29.74;41.89;100392.61;108340;1257;65889;-82
2023/06/23 07:09:51;;;;;;;12.90;11.80;;;;;;;29.73;41.66;100395.44;107788;1256;66013;-80
2023/06/23 07:12:27;;;;;;;13.50;12.20;;;;;;;29.78;42.41;100388.29;107677;1257;63760;-78
2023/06/23 07:14:55;;;;;;;13.30;12.10;;;;;;;29.88;42.18;100389.63;107642;1263;59184;-80
2023/06/23 07:17:23;;;;;;;12.50;11.30;;;;;;;30.00;41.39;100385.55;107765;1256;60477;-81
2023/06/23 07:19:50;;;;;;;13.60;12.40;;;;;;;30.11;40.95;100381.38;107797;1257;64971;-81
2023/06/23 07:22:18;;;;;;;12.70;11.60;;;;;;;30.23;40.92;100379.73;107777;1257;63764;-80
2023/06/23 07:24:46;;;;;;;13.10;11.80;;;;;;;30.36;40.18;100381.61;107638;1257;63779;-81
2023/06/23 07:27:17;;;;;;;13.30;11.80;;;;;;;30.49;40.07;100380.33;107751;1260;60213;-81
2023/06/23 07:29:45;;;;;;;12.20;11.10;;;;;;;30.56;39.52;100379.13;107760;1257;60297;-82
2023/06/23 07:32:14;;;;;;;12.70;11.60;;;;;;;30.55;39.12;100377.08;107807;1257;63702;-83
2023/06/23 07:34:42;;;;;;;12.70;11.60;;;;;;;30.55;39.10;100377.64;107753;1256;62531;-81
2023/06/23 07:37:10;;;;;;;13.30;12.00;;;;;;;30.59;39.41;100380.23;107725;1257;62620;-81
2023/06/23 07:39:37;;;;;;;13.30;12.00;;;;;;;30.61;38.85;100382.19;107745;1257;60460;-81
2023/06/23 07:42:05;;;;;;;13.10;11.80;;;;;;;30.63;38.82;100378.48;107760;1257;60530;-81
2023/06/23 07:44:33;;;;;;;12.00;11.00;;;;;;;30.73;38.80;100374.52;107790;1257;64926;-81
2023/06/23 07:47:01;;;;;;;13.10;11.80;;;;;;;30.81;38.52;100372.38;107692;1256;64751;-81
2023/06/23 07:49:29;;;;;;;12.80;11.80;;;;;;;30.83;38.59;100376.55;107827;1260;62518;-81
2023/06/23 07:52:00;;;;;;;12.50;11.40;;;;;;;30.81;38.46;100368.52;107753;1262;60380;-82
2023/06/23 07:54:28;;;;;;;;;;;;;;;30.82;38.17;100366.31;107836;1256;60348;-81
2023/06/23 07:57:11;;;;;;;12.20;10.90;;;;;;;30.83;38.13;100367.96;107823;1256;67316;-82
2023/06/23 08:00:14;;;;;;;12.60;11.30;;;;;;;30.82;37.89;100368.52;107973;1257;73724;-80
2023/06/23 08:03:16;;;;;;;12.20;11.00;;;;;;;30.88;37.78;100370.08;108415;1257;62696;-80
2023/06/23 08:06:23;;;;;;;11.20;10.10;;;;;;;30.94;37.87;100368.64;108191;1257;60437;-81
2023/06/23 08:09:12;;;;;;;11.70;10.50;;;;;;;31.00;37.70;100365.38;107942;1256;60367;-81
2023/06/23 08:11:54;;;;;;;11.90;10.70;;;;;;;31.07;38.40;100365.19;107843;1257;63690;-80
2023/06/23 08:14:42;;;;;;;11.80;10.60;;;;;;;31.20;37.28;100361.50;107835;1256;62613;-80
2023/06/23 08:17:10;;;;;;;11.70;10.60;;;;;;;31.23;37.02;100355.80;107879;1256;62545;-81
2023/06/23 08:19:37;;;;;;;12.10;10.90;;;;;;;31.23;37.39;100350.37;108400;1256;60495;-81
2023/06/23 08:22:05;;;;;;;12.10;10.90;;;;;;;31.26;37.88;100345.77;108436;1256;59186;-80
2023/06/23 08:24:33;;;;;;;11.80;10.60;;;;;;;31.36;37.86;100350.08;108352;1257;63649;-80
2023/06/23 08:27:01;;;;;;;11.90;10.50;;;;;;;31.47;37.44;100348.13;108448;1256;62521;-81
2023/06/23 08:29:28;;;;;;;11.40;10.40;;;;;;;31.48;36.86;100341.55;108403;1256;64839;-82
2023/06/23 08:31:56;;;;;;;10.30;9.30;;;;;;;31.52;36.88;100339.09;108367;1257;60256;-81
2023/06/23 08:34:24;;;;;;;10.60;9.60;;;;;;;31.62;36.57;100336.02;108243;1257;58350;-81
2023/06/23 08:36:51;;;;;;;9.50;8.60;;;;;;;31.72;35.85;100333.26;108338;1262;63734;-81
2023/06/23 08:39:20;;;;;;;10.90;9.50;;;;;;;31.77;35.88;100332.02;108201;1256;62551;-82
2023/06/23 08:41:49;;;;;;;10.10;9.10;;;;;;;31.78;35.85;100331.62;108209;1256;62454;-80
2023/06/23 08:44:18;;;;;;;10.50;9.10;;;;;;;31.78;35.43;100333.20;107820;1264;60576;-81
2023/06/23 08:46:47;;;;;;;10.80;9.70;;;;;;;31.76;35.27;100330.54;108560;1256;60224;-81
2023/06/23 08:49:31;;;;;;;10.10;9.20;;;;;;;31.79;35.56;100324.76;108566;1256;63644;-82
2023/06/23 08:52:01;;;;;;;9.70;8.50;;;;;;;31.90;35.42;100331.31;108435;1256;65027;-80
2023/06/23 08:54:30;;;;;;;9.20;8.40;;;;;;;31.92;35.40;100336.36;108374;1256;64749;-81
2023/06/23 08:57:17;;;;;;;10.00;9.00;;;;;;;31.97;35.44;100330.94;108400;1257;59374;-80
2023/06/23 08:59:49;;;;;;;9.20;8.30;;;;;;;32.12;35.43;100324.56;108189;1257;59260;-81
2023/06/23 09:02:16;;;;;;;9.40;8.50;;;;;;;32.20;35.02;100319.27;107801;1256;63717;-82
2023/06/23 09:04:44;;;;;;;9.50;8.50;;;;;;;32.32;33.88;100318.91;107898;1256;63792;-81
2023/06/23 09:07:12;;;;;;;9.00;8.20;;;;;;;32.23;33.93;100313.40;107710;1256;62524;-81
2023/06/23 09:09:41;;;;;;;9.00;8.00;;;;;;;32.18;34.33;100308.48;107891;1257;60450;-80
2023/06/23 09:12:10;;;;;;;9.80;7.90;;;;;;;32.26;34.51;100310.69;107805;1256;60495;-80
2023/06/23 09:14:37;;;;;;;8.80;8.00;;;;;;;32.37;34.06;100310.49;107806;1256;65133;-81
2023/06/23 09:17:05;;;;;;;8.50;7.50;;;;;;;32.43;33.34;100309.02;107719;1256;62579;-81
2023/06/23 09:19:33;;;;;;;8.90;8.10;;;;;;;32.43;32.70;100309.57;107788;1258;63753;-82
2023/06/23 09:22:00;;;;;;;9.10;8.20;;;;;;;32.39;32.75;100302.65;107707;1259;60355;-81
2023/06/23 09:24:43;;;;;;;9.10;8.20;;;;;;;32.43;33.10;100303.33;107702;1257;59409;-81
2023/06/23 09:27:11;;;;;;;9.10;8.30;;;;;;;32.55;33.53;100297.27;107804;1257;63855;-81
2023/06/23 09:29:39;;;;;;;9.60;8.60;;;;;;;32.74;32.57;100296.01;107850;1258;72209;-81
2023/06/23 09:32:09;;;;;;;8.70;8.00;;;;;;;32.79;32.14;100291.99;107813;1259;63802;-81
2023/06/23 09:34:40;;;;;;;8.70;7.90;;;;;;;32.85;32.45;100290.09;107814;1257;59184;-81
2023/06/23 09:37:13;;;;;;;9.40;8.50;;;;;;;32.91;32.70;100288.83;107831;1257;59493;-80
2023/06/23 09:39:44;;;;;;;8.60;7.80;;;;;;;33.02;32.17;100283.88;107955;1259;64962;-81
2023/06/23 09:42:14;;;;;;;8.00;7.30;;;;;;;33.06;31.63;100281.84;107778;1257;64099;-82
2023/06/23 09:44:45;;;;;;;8.40;7.60;;;;;;;33.04;32.22;100279.89;107736;1257;62509;-80
2023/06/23 09:47:15;;;;;;;7.80;7.10;;;;;;;33.10;32.34;100280.29;107826;1257;60197;-80
2023/06/23 09:49:47;;;;;;;10.00;7.50;;;;;;;33.23;32.25;100275.83;107727;1257;59316;-80
2023/06/23 09:52:28;;;;;;;8.70;7.50;;;;;;;33.39;32.11;100274.79;107670;1259;64935;-80
2023/06/23 09:55:20;;;;;;;7.90;7.20;;;;;;;33.56;31.52;100279.04;107696;1257;63936;-81
2023/06/23 09:58:04;;;;;;;8.50;7.80;;;;;;;33.66;30.89;100278.25;107722;1257;63770;-81
2023/06/23 10:01:08;;;;;;;7.80;7.10;;;;;;;33.66;31.31;100275.24;107654;1259;59428;-81
2023/06/23 10:04:01;;;;;;;7.90;7.20;;;;;;;33.75;31.61;100272.14;107672;1256;60306;-80
2023/06/23 10:06:56;;;;;;;;;;;;;;;33.89;31.24;100267.55;107908;1257;63748;-80
2023/06/23 10:09:25;;;;;;;8.70;7.90;;;;;;;33.92;31.33;100265.12;107855;1257;72903;-82
2023/06/23 10:11:53;;;;;;;9.20;8.10;;;;;;;33.88;31.70;100261.31;107821;1259;63812;-80
2023/06/23 10:14:21;;;;;;;7.80;6.90;;;;;;;33.79;31.14;100262.88;107817;1258;60411;-82
2023/06/23 10:16:53;;;;;;;8.50;7.60;;;;;;;33.80;30.97;100265.65;107621;1257;60429;-82
2023/06/23 10:19:21;;;;;;;8.90;8.10;;;;;;;33.84;31.02;100268.73;107657;1257;64945;-82
2023/06/23 10:21:48;;;;;;;8.20;7.40;;;;;;;33.86;31.23;100269.17;107622;1256;62694;-81
2023/06/23 10:24:18;;;;;;;8.60;7.70;;;;;;;33.97;31.30;100267.31;107813;1257;63958;-82
2023/06/23 10:26:46;;;;;;;8.60;7.80;;;;;;;33.94;31.09;100265.88;107864;1257;59468;-80
2023/06/23 10:29:15;;;;;;;11.30;8.20;;;;;;;33.78;30.56;100267.58;107732;1257;60358;-82
2023/06/23 10:31:42;;;;;;;8.90;8.00;;;;;;;33.52;30.62;100260.83;107726;1259;65689;-82
2023/06/23 10:34:15;;;;;;;9.50;8.60;;;;;;;33.34;31.23;100264.58;107831;1257;63801;-83
2023/06/23 10:36:43;;;;;;;9.50;8.60;;;;;;;33.21;31.51;100265.09;107669;1256;63744;-81
2023/06/23 10:39:11;;;;;;;9.00;8.10;;;;;;;33.06;31.68;100269.84;107645;1261;60402;-81
2023/06/23 10:41:42;;;;;;;9.50;8.60;;;;;;;32.88;32.09;100271.16;107776;1257;59681;-80
2023/06/23 10:44:10;;;;;;;9.50;8.60;;;;;;;32.72;32.67;100270.90;107803;1257;63736;-81
2023/06/23 10:46:40;;;;;;;9.00;8.10;;;;;;;32.76;33.09;100270.92;107754;1257;72940;-81
2023/06/23 10:49:09;;;;;;;8.90;7.70;;;;;;;32.83;33.23;100267.04;107773;1259;62432;-82
2023/06/23 10:51:48;;;;;;;8.50;7.70;;;;;;;32.97;33.08;100261.73;107777;1257;60377;-81
2023/06/23 10:54:33;;;;;;;10.10;8.30;;;;;;;33.12;32.82;100263.89;107873;1256;60469;-81
2023/06/23 10:57:22;;;;;;;8.80;8.00;;;;;;;33.35;32.66;100267.26;107759;1256;63736;-82
2023/06/23 11:00:11;;;;;;;8.80;7.90;;;;;;;33.52;31.54;100268.73;107601;1256;64384;-81
2023/06/23 11:02:52;;;;;;;9.50;8.30;;;;;;;33.61;31.59;100270.48;107729;1256;63712;-81
2023/06/23 11:05:19;;;;;;;8.30;7.50;;;;;;;33.53;31.45;100268.70;107787;1257;60438;-80
2023/06/23 11:08:01;;;;;;;8.80;8.00;;;;;;;33.36;31.57;100268.49;107771;1257;60415;-81
2023/06/23 11:10:51;;;;;;;9.10;8.20;;;;;;;33.20;31.45;100262.10;107813;1257;63625;-80
2023/06/23 11:13:19;;;;;;;9.70;8.80;;;;;;;33.12;31.91;100264.92;107712;1258;63978;-81
2023/06/23 11:16:06;;;;;;;8.60;7.80;;;;;;;33.05;32.65;100266.92;107691;1260;64252;-82
2023/06/23 11:18:34;;;;;;;9.70;8.20;;;;;;;32.92;32.60;100263.05;107698;1258;60439;-80
2023/06/23 11:21:16;;;;;;;9.20;8.10;;;;;;;32.72;32.97;100262.84;107679;1257;60512;-81
2023/06/23 11:24:07;;;;;;;9.00;8.30;;;;;;;32.57;32.99;100257.11;103660;1258;66346;-81
2023/06/23 11:26:35;;;;;;;9.90;8.90;;;;;;;32.49;32.72;100258.16;107725;1257;64340;-82
2023/06/23 11:29:09;;;;;;;9.60;8.60;;;;;;;32.42;32.98;100257.05;107867;1257;60543;-82
2023/06/23 11:32:12;;;;;;;9.10;8.30;;;;;;;32.44;33.64;100256.48;107770;1258;60493;-80
2023/06/23 11:34:57;;;;;;;9.50;8.60;;;;;;;32.56;34.02;100255.40;107597;1259;67203;-82
2023/06/23 11:37:31;;;;;;;11.00;9.60;;;;;;;32.66;33.99;100254.48;107697;1257;63813;-80
2023/06/23 11:40:00;;;;;;;10.00;9.10;;;;;;;32.73;33.86;100249.56;107647;1256;62818;-82
2023/06/23 11:42:28;;;;;;;9.70;8.80;;;;;;;32.78;33.60;100244.77;107490;1256;59468;-84
2023/06/23 11:44:57;;;;;;;9.00;8.10;;;;;;;32.78;33.61;100247.59;107601;1257;60358;-86
2023/06/23 11:47:28;;;;;;;9.50;8.20;;;;;;;32.72;33.74;100252.83;107782;1256;65210;-85
2023/06/23 11:50:03;;;;;;;12.10;9.40;;;;;;;32.65;34.34;100247.70;107703;1257;63810;-85
2023/06/23 11:53:09;;;;;;;9.50;8.50;;;;;;;32.64;34.35;100245.17;107573;1259;63804;-85
2023/06/23 11:55:39;;;;;;;11.30;9.40;;;;;;;32.70;33.83;100238.93;107749;1256;59599;-85
2023/06/23 11:58:06;;;;;;;9.20;8.30;;;;;;;32.85;34.00;100237.68;107705;1256;60439;-83
2023/06/23 12:00:34;;;;;;;8.30;7.50;;;;;;;33.09;33.91;100233.72;107737;1256;64948;-83
2023/06/23 12:03:02;;;;;;;8.50;7.60;;;;;;;33.32;33.33;100231.54;107802;1256;62522;-83
2023/06/23 12:05:30;;;;;;;8.50;7.80;;;;;;;33.48;33.02;100226.16;107701;1257;62648;-84
2023/06/23 12:07:58;;;;;;;8.50;7.70;;;;;;;33.59;32.29;100221.39;107676;1257;60432;-83
2023/06/23 12:10:27;;;;;;;8.10;7.30;;;;;;;33.59;32.16;100222.96;107801;1256;59369;-83